Time;durP1;ratioP1;P1;durP2;ratioP2;P2;SDS_P1;SDS_P2;PMS_P1;PMS_P2;Temp;Humidity;BMP_temperature;BMP_pressure;BME280_temperature;BME280_humidity;BME280_pressure;Samples;Min_cycle;Max_cycle;Signal;HPM_P1;HPM_P2
2021/09/18 00:00:24;;;;;;;5.70;5.30;;;;;;;12.55;98.13;101173.84;4347598;32;20587;-69
2021/09/18 00:02:50;;;;;;;5.00;4.72;;;;;;;12.58;98.21;101178.09;4348789;32;20505;-69
2021/09/18 00:05:15;;;;;;;5.12;4.93;;;;;;;12.58;97.95;101170.19;4396600;32;20081;-69
2021/09/18 00:07:40;;;;;;;4.87;4.68;;;;;;;12.54;98.12;101171.28;4346094;32;20417;-69
2021/09/18 00:10:06;;;;;;;6.57;6.18;;;;;;;12.52;98.04;101178.44;4399951;32;20073;-70
2021/09/18 00:12:32;;;;;;;5.07;4.78;;;;;;;12.27;97.59;101137.59;4346911;32;20080;-69
2021/09/18 00:14:57;;;;;;;6.32;6.03;;;;;;;12.47;97.84;101170.78;4397043;32;20065;-69
2021/09/18 00:17:25;;;;;;;5.70;5.40;;;;;;;12.46;98.09;101171.69;4394822;32;20078;-69
2021/09/18 00:19:51;;;;;;;4.85;4.65;;;;;;;10.27;97.60;100841.97;4399956;32;20093;-70
2021/09/18 00:22:16;;;;;;;5.00;4.70;;;;;;;12.43;97.75;101163.09;4390602;32;20548;-69
2021/09/18 00:24:42;;;;;;;5.62;5.30;;;;;;;12.43;98.20;101169.25;4347647;32;20089;-69
2021/09/18 00:27:07;;;;;;;6.45;6.15;;;;;;;12.43;97.83;101171.00;4372588;32;20061;-70
2021/09/18 00:29:32;;;;;;;5.37;5.07;;;;;;;12.42;97.95;101177.22;4397959;32;20073;-69
2021/09/18 00:31:58;;;;;;;7.05;6.75;;;;;;;12.39;97.69;101183.50;4397815;32;20096;-69
2021/09/18 00:34:23;;;;;;;6.57;5.53;;;;;;;12.13;98.08;101130.44;4402338;32;20151;-69
2021/09/18 00:36:48;;;;;;;5.40;5.10;;;;;;;12.37;98.01;101172.19;4399630;32;20086;-69
2021/09/18 00:39:14;;;;;;;5.35;4.95;;;;;;;12.35;97.93;101167.00;4397714;32;22097;-69
2021/09/18 00:41:39;;;;;;;4.53;4.32;;;;;;;12.33;98.14;101168.87;4389608;32;20487;-68
2021/09/18 00:44:05;;;;;;;6.57;6.28;;;;;;;12.32;98.12;101158.41;4397088;32;20074;-70
2021/09/18 00:46:30;;;;;;;5.28;4.97;;;;;;;12.30;98.29;101158.47;4404639;32;20302;-69
2021/09/18 00:48:55;;;;;;;6.15;5.85;;;;;;;12.29;98.29;101161.22;4397903;32;20097;-70
2021/09/18 00:51:21;;;;;;;5.97;5.35;;;;;;;12.25;98.33;101171.03;4398821;32;20089;-69
2021/09/18 00:53:46;;;;;;;4.95;4.75;;;;;;;11.82;98.09;101103.94;4407822;32;20384;-69
2021/09/18 00:56:12;;;;;;;5.10;4.90;;;;;;;12.17;98.87;101165.31;4401424;32;20194;-69
2021/09/18 00:58:37;;;;;;;6.07;5.32;;;;;;;11.20;98.50;101006.31;4426799;32;20207;-69
2021/09/18 01:01:03;;;;;;;6.70;6.40;;;;;;;12.06;98.72;101171.12;4389586;32;20549;-69
2021/09/18 01:03:28;;;;;;;5.10;4.90;;;;;;;12.10;99.20;101169.19;4413064;32;20073;-67
2021/09/18 01:05:55;;;;;;;5.43;5.20;;;;;;;12.05;99.05;101164.16;4396543;32;20069;-70
2021/09/18 01:08:21;;;;;;;5.20;4.80;;;;;;;12.05;98.96;101172.06;4398401;32;20622;-69
2021/09/18 01:10:46;;;;;;;5.28;5.07;;;;;;;12.01;98.86;101167.00;4398428;32;20155;-69
2021/09/18 01:13:15;;;;;;;5.10;4.90;;;;;;;11.99;99.04;101172.37;4406084;32;20537;-69
2021/09/18 01:15:40;;;;;;;4.85;4.65;;;;;;;11.98;98.84;101174.12;4398634;32;20166;-69
2021/09/18 01:18:06;;;;;;;6.60;6.20;;;;;;;12.00;99.09;101162.69;4366817;32;20081;-69
2021/09/18 01:20:31;;;;;;;5.10;4.90;;;;;;;12.02;98.55;101163.47;4389001;32;20588;-69
2021/09/18 01:22:57;;;;;;;6.70;6.40;;;;;;;12.04;99.19;101170.34;4387152;32;20169;-69
2021/09/18 01:25:28;;;;;;;5.03;4.72;;;;;;;12.06;99.52;101165.00;4406569;32;20887;-69
2021/09/18 01:27:53;;;;;;;5.22;5.00;;;;;;;12.08;99.63;101160.53;4395890;32;20069;-70
2021/09/18 01:30:23;;;;;;;5.18;4.97;;;;;;;12.08;99.24;101163.16;4372885;32;20188;-69
2021/09/18 01:32:49;;;;;;;5.35;5.05;;;;;;;12.05;98.87;101163.34;4397036;32;20085;-69
2021/09/18 01:35:14;;;;;;;5.15;4.95;;;;;;;12.04;99.12;101172.97;4374163;32;21752;-69
2021/09/18 01:37:40;;;;;;;5.20;5.00;;;;;;;12.01;99.25;101173.16;4379320;32;20082;-69
2021/09/18 01:40:06;;;;;;;6.35;6.05;;;;;;;11.58;98.66;101112.16;4352817;32;20131;-69
2021/09/18 01:42:31;;;;;;;4.70;4.50;;;;;;;11.96;99.41;101173.34;4420607;32;20085;-69
2021/09/18 01:44:57;;;;;;;6.03;5.72;;;;;;;11.88;99.08;101175.50;4395577;32;20135;-70
2021/09/18 01:47:22;;;;;;;4.68;4.47;;;;;;;11.80;99.65;101168.94;4393664;32;20069;-69
2021/09/18 01:49:47;;;;;;;5.37;5.12;;;;;;;11.08;98.89;101071.66;4395753;32;20909;-68
2021/09/18 01:52:34;;;;;;;4.95;4.75;;;;;;;11.67;98.58;101180.06;4391668;32;20200;-69
2021/09/18 01:55:00;;;;;;;6.37;6.07;;;;;;;11.61;98.86;101179.50;4362096;32;20498;-70
2021/09/18 01:57:25;;;;;;;4.90;4.60;;;;;;;11.58;99.07;101183.97;4392007;32;20086;-69
2021/09/18 01:59:51;;;;;;;5.22;5.00;;;;;;;11.58;98.83;101180.50;4401558;32;20142;-71
2021/09/18 02:02:16;;;;;;;5.65;5.43;;;;;;;10.71;98.48;101035.81;4342991;32;20092;-69
2021/09/18 02:04:41;;;;;;;4.62;4.43;;;;;;;11.54;98.77;101173.69;4346078;32;20118;-69
2021/09/18 02:07:07;;;;;;;4.70;4.50;;;;;;;11.53;99.00;101175.47;4400835;32;20064;-69
2021/09/18 02:09:32;;;;;;;9.23;4.85;;;;;;;11.52;99.24;101179.00;4346043;32;20583;-69
2021/09/18 02:11:57;;;;;;;6.55;6.25;;;;;;;11.43;99.22;101166.31;4391639;32;20094;-66
2021/09/18 02:14:23;;;;;;;5.20;4.90;;;;;;;11.21;99.64;101142.84;4410369;32;20062;-68
2021/09/18 02:16:48;;;;;;;5.20;5.00;;;;;;;11.46;99.15;101170.56;4396679;32;20088;-69
2021/09/18 02:19:13;;;;;;;5.10;4.90;;;;;;;11.31;98.77;101151.16;4344535;32;20123;-70
2021/09/18 02:21:39;;;;;;;4.80;4.60;;;;;;;11.44;99.00;101175.06;4343036;32;20088;-69
2021/09/18 02:24:04;;;;;;;6.45;6.15;;;;;;;11.42;99.22;101177.75;4344477;32;20419;-69
2021/09/18 02:26:30;;;;;;;5.60;5.28;;;;;;;11.41;99.23;101168.19;4384564;32;20066;-69
2021/09/18 02:28:55;;;;;;;5.65;5.40;;;;;;;11.35;99.32;101157.97;4344423;32;20093;-70
2021/09/18 02:31:20;;;;;;;5.10;4.90;;;;;;;11.40;99.21;101166.47;4398630;32;20084;-69
2021/09/18 02:33:46;;;;;;;5.10;4.90;;;;;;;11.40;99.60;101158.56;4390079;32;20131;-69
2021/09/18 02:36:11;;;;;;;5.30;5.10;;;;;;;11.40;99.74;101169.09;4355157;32;20993;-69
2021/09/18 02:38:36;;;;;;;5.80;5.50;;;;;;;11.37;99.22;101161.38;4319768;32;20074;-69
2021/09/18 02:41:02;;;;;;;5.97;5.68;;;;;;;11.26;99.20;101142.63;4399319;32;20070;-69
2021/09/18 02:43:27;;;;;;;4.62;4.43;;;;;;;11.35;98.95;101155.34;4398654;32;20085;-68
2021/09/18 02:45:53;;;;;;;4.90;4.60;;;;;;;11.32;99.22;101158.09;4400565;32;20082;-69
2021/09/18 02:48:19;;;;;;;5.28;5.07;;;;;;;11.23;99.48;101146.25;4401984;32;20787;-67
2021/09/18 02:50:44;;;;;;;4.87;4.68;;;;;;;11.23;99.40;101148.03;4396359;32;20166;-68
2021/09/18 02:53:09;;;;;;;5.68;5.45;;;;;;;11.18;99.28;101145.63;4412124;32;20321;-70
2021/09/18 02:55:35;;;;;;;5.25;4.95;;;;;;;11.14;98.75;101144.06;4344564;32;20631;-68
2021/09/18 02:58:00;;;;;;;5.85;5.57;;;;;;;11.07;98.99;101151.38;4396695;32;20645;-69
2021/09/18 03:00:25;;;;;;;5.15;4.85;;;;;;;10.61;99.40;101076.53;4345701;32;20444;-69
2021/09/18 03:02:52;;;;;;;4.90;4.70;;;;;;;11.00;98.88;101160.47;4400439;32;20170;-69
2021/09/18 03:05:18;;;;;;;4.45;4.25;;;;;;;10.97;98.59;101147.50;4414112;32;20485;-68
2021/09/18 03:07:43;;;;;;;5.07;4.80;;;;;;;10.92;98.76;101166.06;4380796;32;20084;-69
2021/09/18 03:10:09;;;;;;;6.25;5.95;;;;;;;10.87;98.99;101140.97;4401468;32;20097;-69
2021/09/18 03:12:34;;;;;;;4.70;4.50;;;;;;;10.82;98.75;101142.94;4349098;32;20058;-69
2021/09/18 03:15:00;;;;;;;6.25;5.95;;;;;;;10.72;98.29;101146.00;4391245;32;20076;-70
2021/09/18 03:17:25;;;;;;;4.50;4.30;;;;;;;10.64;98.40;101144.63;4398912;32;20113;-69
2021/09/18 03:19:53;;;;;;;5.07;4.85;;;;;;;10.59;98.01;101142.22;4404818;32;20698;-69
2021/09/18 03:22:18;;;;;;;4.70;4.50;;;;;;;10.55;98.58;101141.50;4426266;32;20604;-69
2021/09/18 03:24:44;;;;;;;4.65;4.45;;;;;;;10.53;98.07;101139.88;4413094;32;20081;-69
2021/09/18 03:27:09;;;;;;;5.57;5.37;;;;;;;10.46;97.81;101122.69;4390924;32;20076;-69
2021/09/18 03:29:34;;;;;;;5.00;4.80;;;;;;;10.53;98.11;101139.88;4402436;32;20934;-69
2021/09/18 03:32:00;;;;;;;5.95;5.65;;;;;;;10.53;98.45;101139.88;4397084;32;20100;-69
2021/09/18 03:34:25;;;;;;;4.50;4.30;;;;;;;10.55;98.35;101135.41;4401825;32;20104;-69
2021/09/18 03:36:51;;;;;;;4.60;4.40;;;;;;;10.56;97.97;101140.59;4398660;32;20142;-71
2021/09/18 03:39:16;;;;;;;4.60;4.40;;;;;;;10.59;98.53;101136.97;4395250;32;20365;-69
2021/09/18 03:41:42;;;;;;;5.32;5.03;;;;;;;10.61;98.98;101139.53;4362137;32;20688;-69
2021/09/18 03:44:07;;;;;;;6.75;6.45;;;;;;;10.63;98.46;101143.78;4410431;32;20068;-69
2021/09/18 03:46:32;;;;;;;5.22;4.93;;;;;;;10.63;98.50;101143.78;4425503;32;20076;-69
2021/09/18 03:48:58;;;;;;;5.65;5.45;;;;;;;10.63;98.98;101143.78;4406617;32;20056;-69
2021/09/18 03:51:23;;;;;;;4.70;4.50;;;;;;;10.63;99.29;101141.16;4421843;32;20170;-69
2021/09/18 03:53:48;;;;;;;4.45;4.25;;;;;;;10.62;98.59;101141.22;4421546;32;20087;-68
2021/09/18 03:56:14;;;;;;;4.70;4.50;;;;;;;10.61;98.89;101143.00;4419279;32;20099;-69
2021/09/18 03:58:39;;;;;;;4.80;4.60;;;;;;;10.62;99.08;101152.56;4437909;32;20056;-69
2021/09/18 04:01:04;;;;;;;6.10;5.80;;;;;;;10.62;99.20;101147.31;4408337;32;20061;-69
2021/09/18 04:03:30;;;;;;;4.30;4.10;;;;;;;10.63;98.75;101141.16;4421149;32;20072;-69
2021/09/18 04:05:55;;;;;;;9.50;5.30;;;;;;;10.64;98.79;101145.47;4409680;32;20582;-70
2021/09/18 04:08:20;;;;;;;4.62;4.43;;;;;;;10.65;99.17;101148.97;4433848;32;20061;-69
2021/09/18 04:10:46;;;;;;;4.72;4.53;;;;;;;10.63;98.85;101146.41;4410130;32;20110;-69
2021/09/18 04:13:11;;;;;;;4.80;4.60;;;;;;;10.63;99.72;101154.28;4404853;32;20931;-69
2021/09/18 04:15:36;;;;;;;4.50;4.30;;;;;;;10.62;99.14;101157.81;4420844;32;20130;-69
2021/09/18 04:18:02;;;;;;;6.53;6.20;;;;;;;10.62;99.35;101157.81;4409568;32;20072;-70
2021/09/18 04:20:27;;;;;;;4.60;4.40;;;;;;;10.63;98.89;101171.81;4423148;32;20958;-69
2021/09/18 04:22:53;;;;;;;5.32;5.03;;;;;;;10.62;99.75;101167.47;4410215;32;20132;-70
2021/09/18 04:25:18;;;;;;;5.03;4.82;;;;;;;10.61;99.80;101161.38;4421061;32;20573;-69
2021/09/18 04:27:43;;;;;;;4.60;4.40;;;;;;;10.61;99.35;101163.16;4433983;32;20376;-69
2021/09/18 04:30:09;;;;;;;6.35;6.05;;;;;;;10.60;99.60;101175.41;4410077;32;20574;-69
2021/09/18 04:32:35;;;;;;;4.75;4.50;;;;;;;10.58;99.20;101166.75;4431550;32;20834;-70
2021/09/18 04:35:00;;;;;;;6.15;5.85;;;;;;;10.50;99.18;101164.50;4408128;32;20235;-70
2021/09/18 04:37:25;;;;;;;4.53;4.32;;;;;;;10.07;99.75;101098.13;4432515;32;20068;-69
2021/09/18 04:39:51;;;;;;;4.75;4.55;;;;;;;10.51;100.00;101167.97;4408474;32;20847;-70
2021/09/18 04:42:16;;;;;;;4.62;4.43;;;;;;;10.47;99.74;101171.63;4430588;32;20095;-69
2021/09/18 04:44:42;;;;;;;4.90;4.70;;;;;;;10.46;100.00;101172.53;4429492;32;20077;-68
2021/09/18 04:47:07;;;;;;;6.18;5.87;;;;;;;10.21;99.24;101129.00;4409948;32;20645;-69
2021/09/18 04:49:32;;;;;;;4.20;4.00;;;;;;;10.12;99.34;101116.28;4421176;32;20154;-69
2021/09/18 04:51:58;;;;;;;6.15;5.85;;;;;;;10.14;99.85;101130.16;4407701;32;20064;-69
2021/09/18 04:54:23;;;;;;;4.70;4.50;;;;;;;10.41;99.75;101169.28;4422494;32;20076;-68
2021/09/18 04:56:48;;;;;;;4.93;4.72;;;;;;;10.40;99.68;101176.28;4412970;32;20079;-69
2021/09/18 04:59:14;;;;;;;5.12;4.93;;;;;;;10.39;100.00;101174.59;4421862;32;20362;-69
2021/09/18 05:01:39;;;;;;;4.50;4.30;;;;;;;10.37;100.00;101181.69;4424278;32;20072;-69
2021/09/18 05:04:04;;;;;;;6.30;6.00;;;;;;;10.30;100.00;101168.00;4420066;32;20084;-69
2021/09/18 05:06:30;;;;;;;5.07;4.87;;;;;;;10.31;99.65;101181.94;4419891;32;20633;-69
2021/09/18 05:08:55;;;;;;;6.00;5.65;;;;;;;10.29;100.00;101189.00;4430976;32;20089;-69
2021/09/18 05:11:20;;;;;;;4.47;4.28;;;;;;;10.25;99.96;101188.28;4422820;32;20071;-68
2021/09/18 05:13:46;;;;;;;4.70;4.50;;;;;;;10.10;99.76;101160.06;4411289;32;20135;-69
2021/09/18 05:16:11;;;;;;;5.50;5.20;;;;;;;10.24;99.63;101189.19;4404845;32;20192;-69
2021/09/18 05:18:36;;;;;;;5.00;4.80;;;;;;;10.12;100.00;101166.09;4434699;32;20483;-69
2021/09/18 05:21:02;;;;;;;5.95;5.68;;;;;;;10.34;99.54;101187.03;4420668;32;20074;-69
2021/09/18 05:23:27;;;;;;;4.50;4.30;;;;;;;10.06;99.78;101138.37;4432724;32;20087;-69
2021/09/18 05:25:53;;;;;;;4.78;4.55;;;;;;;10.44;99.67;101190.97;4410886;32;20072;-70
2021/09/18 05:28:18;;;;;;;4.30;4.10;;;;;;;10.23;100.00;101165.66;4408222;32;20345;-69
2021/09/18 05:30:43;;;;;;;4.45;4.25;;;;;;;10.43;100.00;101189.28;4408318;32;20082;-69
2021/09/18 05:33:09;;;;;;;5.93;5.65;;;;;;;10.54;100.00;101197.56;4409193;32;20091;-69
2021/09/18 05:35:34;;;;;;;5.12;4.75;;;;;;;10.58;100.00;101206.13;4420461;32;20528;-69
2021/09/18 05:37:59;;;;;;;7.10;6.75;;;;;;;10.60;100.00;101201.66;4406912;32;20337;-70
2021/09/18 05:40:26;;;;;;;4.57;4.37;;;;;;;10.64;100.00;101200.59;4423093;32;20076;-69
2021/09/18 05:42:52;;;;;;;4.40;4.20;;;;;;;9.39;100.00;100982.25;4397970;32;20338;-71
2021/09/18 05:45:17;;;;;;;4.53;4.32;;;;;;;10.75;100.00;101192.25;4402106;32;20619;-69
2021/09/18 05:47:43;;;;;;;4.70;4.50;;;;;;;10.84;100.00;101199.69;4393919;32;20073;-69
2021/09/18 05:50:08;;;;;;;6.05;5.75;;;;;;;10.64;100.00;101174.34;4345423;32;20158;-70
2021/09/18 05:52:34;;;;;;;4.50;4.30;;;;;;;10.62;99.45;101214.72;4408282;32;20074;-69
2021/09/18 05:54:59;;;;;;;5.93;5.62;;;;;;;10.57;98.61;101215.78;4343832;32;20575;-69
2021/09/18 05:57:24;;;;;;;4.50;4.30;;;;;;;10.60;98.18;101224.44;4395218;32;20076;-69
2021/09/18 05:59:50;;;;;;;4.93;4.57;;;;;;;10.68;98.62;101217.06;4398336;32;20061;-69
2021/09/18 06:02:15;;;;;;;4.57;4.37;;;;;;;10.78;98.90;101221.84;4343925;32;20081;-69
2021/09/18 06:04:41;;;;;;;5.90;5.47;;;;;;;10.90;98.83;101224.84;4342939;32;20101;-70
2021/09/18 06:07:06;;;;;;;6.35;6.05;;;;;;;11.01;98.87;101222.59;4395038;32;20104;-68
2021/09/18 06:09:31;;;;;;;5.05;4.75;;;;;;;11.08;98.72;101229.25;4348138;32;20087;-69
2021/09/18 06:11:57;;;;;;;5.65;5.37;;;;;;;11.23;98.99;101237.37;4390068;32;20486;-69
2021/09/18 06:14:22;;;;;;;5.93;4.60;;;;;;;11.36;99.20;101233.22;4407381;32;20366;-69
2021/09/18 06:16:47;;;;;;;4.78;4.57;;;;;;;11.55;98.57;101228.81;4398226;32;20583;-68
2021/09/18 06:19:15;;;;;;;4.90;4.70;;;;;;;11.74;98.83;101227.91;4394863;32;20519;-69
2021/09/18 06:21:40;;;;;;;4.62;4.43;;;;;;;11.92;98.12;101242.81;4360886;32;20057;-69
2021/09/18 06:24:11;;;;;;;7.10;6.78;;;;;;;12.10;98.29;101242.84;4344368;32;20619;-69
2021/09/18 06:26:37;;;;;;;4.80;4.60;;;;;;;12.31;98.19;101235.69;4348629;32;20100;-69
2021/09/18 06:29:03;;;;;;;4.62;4.43;;;;;;;12.49;98.26;101241.78;4399415;32;20066;-68
2021/09/18 06:31:29;;;;;;;4.82;4.62;;;;;;;12.65;98.06;101241.81;4397858;32;20084;-69
2021/09/18 06:33:54;;;;;;;5.82;5.53;;;;;;;12.83;97.83;101237.37;4391549;32;20422;-69
2021/09/18 06:36:19;;;;;;;5.18;4.87;;;;;;;11.96;97.41;101073.41;4359966;32;20088;-69
2021/09/18 06:38:45;;;;;;;4.93;4.72;;;;;;;13.13;97.34;101237.53;4397822;32;20618;-69
2021/09/18 06:41:10;;;;;;;5.68;5.37;;;;;;;13.29;97.02;101243.69;4396475;32;20086;-69
2021/09/18 06:43:35;;;;;;;4.75;4.55;;;;;;;13.37;96.74;101224.81;4420469;32;20064;-68
2021/09/18 06:46:01;;;;;;;6.47;6.18;;;;;;;13.51;96.60;101235.44;4406590;32;20117;-68
2021/09/18 06:48:26;;;;;;;4.87;4.62;;;;;;;13.61;96.01;101237.53;4422365;32;20060;-69
2021/09/18 06:50:52;;;;;;;5.10;4.90;;;;;;;13.66;95.59;101239.00;4404262;32;20083;-70
2021/09/18 06:53:17;;;;;;;4.70;4.50;;;;;;;13.70;96.15;101237.88;4422063;32;20077;-68
2021/09/18 06:55:42;;;;;;;5.30;5.00;;;;;;;13.75;95.59;101238.50;4431749;32;20072;-69
2021/09/18 06:58:08;;;;;;;6.87;6.57;;;;;;;13.84;95.82;101239.72;4418821;32;20150;-69
2021/09/18 07:00:33;;;;;;;5.35;5.15;;;;;;;13.93;95.33;101238.34;4422070;32;20068;-69
2021/09/18 07:02:59;;;;;;;6.57;6.28;;;;;;;14.06;95.36;101238.50;4419968;32;20435;-66
2021/09/18 07:05:24;;;;;;;5.40;5.20;;;;;;;14.14;94.72;101236.28;4422856;32;20460;-69
2021/09/18 07:07:49;;;;;;;5.50;5.20;;;;;;;14.20;94.73;101240.34;4420812;32;20068;-69
2021/09/18 07:10:15;;;;;;;4.90;4.70;;;;;;;14.35;94.23;101240.28;4410972;32;20142;-69
2021/09/18 07:12:40;;;;;;;5.85;5.55;;;;;;;14.56;93.62;101243.47;4421426;32;20128;-69
2021/09/18 07:15:06;;;;;;;7.00;6.70;;;;;;;14.65;93.12;101209.50;4404285;32;20179;-69
2021/09/18 07:17:32;;;;;;;5.20;5.00;;;;;;;14.87;92.66;101244.22;4423298;32;20065;-69
2021/09/18 07:19:58;;;;;;;6.47;6.18;;;;;;;14.67;92.62;101191.75;4406905;32;20700;-69
2021/09/18 07:22:26;;;;;;;5.85;5.55;;;;;;;14.98;91.08;101243.56;4407475;32;20087;-68
2021/09/18 07:24:52;;;;;;;5.55;5.25;;;;;;;15.07;90.85;101245.62;4412570;32;20542;-71
2021/09/18 07:27:17;;;;;;;5.10;4.90;;;;;;;15.09;90.20;101213.81;4417815;32;21420;-69
2021/09/18 07:29:46;;;;;;;5.60;5.30;;;;;;;15.28;90.62;101240.81;4409801;32;20122;-71
2021/09/18 07:32:12;;;;;;;5.68;5.37;;;;;;;15.41;90.31;101240.84;4419662;32;20463;-69
2021/09/18 07:34:37;;;;;;;5.68;5.40;;;;;;;15.45;89.53;101242.34;4409738;32;20683;-68
2021/09/18 07:37:02;;;;;;;6.28;5.97;;;;;;;15.60;89.25;101243.19;4401652;32;20079;-71
2021/09/18 07:39:28;;;;;;;5.85;5.55;;;;;;;15.85;88.53;101245.09;4419006;32;20543;-68
2021/09/18 07:41:54;;;;;;;5.72;5.45;;;;;;;15.66;86.09;101220.78;4405800;32;20158;-70
2021/09/18 07:44:19;;;;;;;5.25;5.05;;;;;;;16.01;85.48;101249.41;4372936;32;20089;-69
2021/09/18 07:46:44;;;;;;;5.45;5.20;;;;;;;15.05;84.49;101067.78;4332689;32;20180;-68
2021/09/18 07:49:10;;;;;;;6.50;6.15;;;;;;;16.14;84.59;101234.41;4347631;32;20626;-68
2021/09/18 07:51:35;;;;;;;5.47;5.20;;;;;;;16.41;84.24;101247.56;4342014;32;20074;-68
2021/09/18 07:54:00;;;;;;;7.00;6.60;;;;;;;16.45;83.75;101258.81;4352831;32;20563;-69
2021/09/18 07:56:26;;;;;;;6.15;5.60;;;;;;;16.32;83.34;101275.53;4347171;32;20084;-69
2021/09/18 07:58:54;;;;;;;5.78;5.47;;;;;;;16.43;83.51;101250.13;4362419;32;20550;-70
2021/09/18 08:01:20;;;;;;;6.00;5.53;;;;;;;16.58;82.82;101257.03;4349065;32;20081;-69
2021/09/18 08:03:45;;;;;;;6.32;5.93;;;;;;;16.55;82.51;101241.31;4332358;32;20583;-69
2021/09/18 08:06:10;;;;;;;6.25;5.85;;;;;;;16.36;82.14;101233.78;4348929;32;20128;-69
2021/09/18 08:08:36;;;;;;;5.53;5.22;;;;;;;16.68;82.71;101254.59;4334954;32;20568;-69
2021/09/18 08:11:01;;;;;;;7.28;6.87;;;;;;;16.89;82.71;101254.91;4340501;32;20086;-67
2021/09/18 08:13:26;;;;;;;6.55;6.15;;;;;;;17.06;82.16;101249.28;4352285;32;20630;-68
2021/09/18 08:15:52;;;;;;;6.07;5.78;;;;;;;17.18;81.77;101249.34;4345626;32;20089;-70
2021/09/18 08:18:17;;;;;;;5.75;5.45;;;;;;;16.98;80.33;101251.63;4341502;32;20296;-69
2021/09/18 08:20:43;;;;;;;6.75;6.35;;;;;;;17.01;82.10;101255.88;4345353;32;20587;-68
2021/09/18 08:23:08;;;;;;;7.45;7.03;;;;;;;17.10;81.50;101256.06;4340793;32;20078;-68
2021/09/18 08:25:33;;;;;;;6.12;5.72;;;;;;;17.24;80.72;101262.19;4350139;32;20080;-68
2021/09/18 08:27:59;;;;;;;8.48;7.97;;;;;;;17.21;81.55;101257.13;4329195;32;20142;-69
2021/09/18 08:30:26;;;;;;;6.40;6.03;;;;;;;17.12;81.62;101259.47;4336900;32;20674;-69
2021/09/18 08:32:51;;;;;;;6.10;5.70;;;;;;;16.69;81.35;101177.59;4334246;32;20435;-71
2021/09/18 08:35:17;;;;;;;6.60;6.18;;;;;;;17.07;80.83;101229.75;4410501;32;20092;-69
2021/09/18 08:37:42;;;;;;;5.97;5.68;;;;;;;17.32;80.30;101252.75;4348667;32;20062;-69
2021/09/18 08:40:08;;;;;;;7.35;6.87;;;;;;;17.51;80.99;101262.00;4342269;32;20081;-69
2021/09/18 08:42:33;;;;;;;6.82;6.43;;;;;;;17.48;79.85;101262.22;4357286;32;20078;-69
2021/09/18 08:44:58;;;;;;;8.15;7.60;;;;;;;17.55;80.17;101260.84;4397599;32;20597;-69
2021/09/18 08:47:24;;;;;;;6.22;5.93;;;;;;;16.81;79.95;101190.97;4391040;32;20100;-69
2021/09/18 08:49:50;;;;;;;6.25;5.95;;;;;;;17.20;80.56;101268.66;4400746;32;20567;-69
2021/09/18 08:52:15;;;;;;;7.78;7.03;;;;;;;17.34;81.22;101266.75;4343823;32;20311;-69
2021/09/18 08:54:41;;;;;;;6.28;5.97;;;;;;;17.70;80.36;101275.66;4399098;32;20623;-69
2021/09/18 08:57:06;;;;;;;8.40;7.90;;;;;;;17.93;80.38;101259.84;4345472;32;20093;-69
2021/09/18 08:59:35;;;;;;;6.78;6.28;;;;;;;18.17;79.21;101266.97;4399754;32;20095;-69
2021/09/18 09:02:14;;;;;;;8.35;7.72;;;;;;;18.32;77.81;101261.34;4399258;32;20085;-68
2021/09/18 09:04:39;;;;;;;6.22;5.93;;;;;;;18.42;77.42;101266.81;4358025;32;20610;-69
2021/09/18 09:07:06;;;;;;;8.48;7.85;;;;;;;18.52;77.27;101259.81;4397496;32;20121;-69
2021/09/18 09:09:52;;;;;;;6.35;6.05;;;;;;;18.80;76.98;101260.34;4358105;32;20136;-69
2021/09/18 09:12:31;;;;;;;7.57;7.00;;;;;;;18.69;75.59;101271.78;4371603;32;20061;-68
2021/09/18 09:14:57;;;;;;;7.15;5.75;;;;;;;18.67;75.75;101239.16;4425700;32;20181;-69
2021/09/18 09:17:25;;;;;;;9.38;7.80;;;;;;;18.94;75.17;101267.25;4378464;32;20604;-69
2021/09/18 09:19:51;;;;;;;6.28;5.87;;;;;;;19.09;74.36;101260.72;4409052;32;20273;-69
2021/09/18 09:22:40;;;;;;;8.10;7.32;;;;;;;19.25;74.29;101263.00;4414849;32;20272;-69
2021/09/18 09:25:06;;;;;;;7.80;7.20;;;;;;;19.42;73.16;101268.78;4403684;32;20808;-69
2021/09/18 09:27:31;;;;;;;7.00;6.50;;;;;;;19.62;72.93;101265.34;4390354;32;20081;-68
2021/09/18 09:29:57;;;;;;;8.05;7.40;;;;;;;19.77;72.51;101265.13;4373818;32;20104;-69
2021/09/18 09:32:33;;;;;;;7.43;6.60;;;;;;;19.89;72.32;101264.94;4346270;32;20093;-69
2021/09/18 09:35:09;;;;;;;8.10;7.40;;;;;;;19.84;71.56;101261.81;4399799;32;20081;-69
2021/09/18 09:37:35;;;;;;;7.85;7.35;;;;;;;19.81;72.30;101267.41;4393569;32;20570;-69
2021/09/18 09:40:02;;;;;;;13.45;8.98;;;;;;;19.75;71.21;101267.91;4371781;32;20130;-69
2021/09/18 09:42:30;;;;;;;7.22;6.62;;;;;;;19.73;71.93;101260.03;4418544;32;20212;-69
2021/09/18 09:45:16;;;;;;;9.20;8.15;;;;;;;19.95;71.06;101257.44;4391752;32;20080;-70
2021/09/18 09:47:42;;;;;;;7.22;6.70;;;;;;;20.10;71.64;101264.13;4405326;32;20058;-69
2021/09/18 09:50:08;;;;;;;9.40;8.70;;;;;;;20.27;70.15;101260.06;4386604;32;20132;-70
2021/09/18 09:52:34;;;;;;;8.32;7.47;;;;;;;20.11;68.53;101237.37;4422863;32;20176;-69
2021/09/18 09:55:10;;;;;;;8.52;7.90;;;;;;;20.04;69.78;101256.66;4397946;32;20089;-69
2021/09/18 09:57:35;;;;;;;11.25;8.38;;;;;;;20.33;69.38;101255.06;4358163;32;20062;-69
2021/09/18 10:00:03;;;;;;;9.93;9.02;;;;;;;20.29;68.75;101216.31;4398227;32;20612;-69
2021/09/18 10:02:29;;;;;;;7.90;7.05;;;;;;;20.78;68.01;101258.44;4423692;32;20657;-69
2021/09/18 10:04:54;;;;;;;8.45;7.62;;;;;;;20.19;67.80;101137.28;4394027;32;20107;-70
2021/09/18 10:07:19;;;;;;;7.95;7.25;;;;;;;21.09;66.76;101253.94;4395423;32;20527;-70
2021/09/18 10:09:45;;;;;;;9.23;8.32;;;;;;;21.03;66.11;101246.47;4398386;32;20322;-70
2021/09/18 10:12:13;;;;;;;8.65;8.05;;;;;;;21.21;66.48;101247.53;4399015;32;20424;-69
2021/09/18 10:14:40;;;;;;;9.02;8.15;;;;;;;21.36;64.60;101250.63;4406541;32;20511;-69
2021/09/18 10:17:06;;;;;;;9.30;8.63;;;;;;;21.10;65.71;101253.78;4395061;32;20088;-69
2021/09/18 10:19:53;;;;;;;8.57;7.97;;;;;;;20.92;65.69;101258.06;4426794;32;20081;-69
2021/09/18 10:25:11;;;;;;;10.05;9.02;;;;;;;20.55;65.22;101223.91;4363165;32;20127;-69
2021/09/18 10:27:36;;;;;;;8.65;7.95;;;;;;;20.88;63.88;101246.81;4399806;32;20081;-69
2021/09/18 10:30:02;;;;;;;10.93;10.05;;;;;;;20.88;60.57;101249.50;4395447;32;20061;-70
2021/09/18 10:32:27;;;;;;;13.40;8.43;;;;;;;20.67;64.06;101230.03;4397503;32;20073;-69
2021/09/18 10:35:22;;;;;;;8.63;7.78;;;;;;;20.94;63.91;101245.44;4389523;32;20092;-70
2021/09/18 10:37:47;;;;;;;7.55;6.97;;;;;;;21.19;64.42;101241.47;4400632;32;20089;-69
2021/09/18 10:40:14;;;;;;;8.27;7.40;;;;;;;21.09;61.43;101236.09;4405292;32;20130;-69
2021/09/18 10:42:43;;;;;;;8.10;7.55;;;;;;;20.95;62.92;101228.47;4392679;32;20109;-69
2021/09/18 10:45:09;;;;;;;8.10;7.53;;;;;;;21.12;63.06;101232.31;4411925;32;20069;-69
2021/09/18 10:47:38;;;;;;;8.55;7.25;;;;;;;21.07;59.59;101226.56;4393574;32;20415;-68
2021/09/18 10:50:27;;;;;;;9.15;8.20;;;;;;;21.21;57.54;101231.50;4368640;32;20062;-69
2021/09/18 10:53:11;;;;;;;7.50;7.00;;;;;;;21.06;54.77;101224.84;4373312;32;20246;-70
2021/09/18 10:55:50;;;;;;;7.12;6.47;;;;;;;21.06;57.39;101223.00;4398914;32;20129;-69
2021/09/18 10:58:15;;;;;;;7.22;6.70;;;;;;;21.28;58.38;101221.94;4393192;32;20595;-68
2021/09/18 11:00:41;;;;;;;7.15;6.62;;;;;;;21.34;58.25;101225.91;4345290;32;20071;-69
2021/09/18 11:03:06;;;;;;;8.00;7.50;;;;;;;21.71;56.95;101211.94;4397021;32;20584;-69
2021/09/18 11:05:35;;;;;;;6.35;5.95;;;;;;;21.76;55.32;101215.03;4342755;32;20088;-69
2021/09/18 11:08:02;;;;;;;7.50;7.05;;;;;;;21.66;51.44;101212.34;4410862;32;20103;-69
2021/09/18 11:10:27;;;;;;;6.00;5.60;;;;;;;21.65;51.94;101209.81;4397556;32;20074;-70
2021/09/18 11:13:11;;;;;;;5.57;5.33;;;;;;;22.05;49.49;101212.34;4422781;32;20090;-70
2021/09/18 11:15:39;;;;;;;7.03;6.53;;;;;;;21.82;51.37;101200.25;4434496;32;20161;-70
2021/09/18 11:18:34;;;;;;;8.55;7.80;;;;;;;21.91;52.68;101210.97;4368182;32;20067;-69
2021/09/18 11:21:20;;;;;;;7.80;7.28;;;;;;;21.95;52.14;101211.53;4407607;32;20074;-70
2021/09/18 11:23:47;;;;;;;6.60;6.25;;;;;;;21.87;52.89;101214.03;4424757;32;20103;-69